createdAt,value
2023-05-18T00:00:38.897Z,39.32
2023-05-18T00:01:40.027Z,38.67
2023-05-18T00:02:40.073Z,38.99
2023-05-18T00:03:40.113Z,38.35
2023-05-18T00:04:40.078Z,37.38
2023-05-18T00:05:39.980Z,36.90
2023-05-18T00:06:39.970Z,37.38
2023-05-18T00:07:39.960Z,38.51
2023-05-18T00:08:39.974Z,38.51
2023-05-18T00:09:39.947Z,38.35
2023-05-18T00:10:39.947Z,40.12
2023-05-18T00:11:39.919Z,38.67
2023-05-18T00:12:39.936Z,38.35
2023-05-18T00:13:39.916Z,40.77
2023-05-18T00:14:39.925Z,39.80
2023-05-18T00:15:39.904Z,42.70
2023-05-18T00:16:39.968Z,40.93
2023-05-18T00:17:39.899Z,39.64
2023-05-18T00:18:39.949Z,39.64
2023-05-18T00:19:39.842Z,40.12
2023-05-18T00:20:39.829Z,38.99
2023-05-18T00:21:39.867Z,39.16
2023-05-18T00:22:39.860Z,38.83
2023-05-18T00:23:39.807Z,37.87
2023-05-18T00:24:39.817Z,39.64
2023-05-18T00:25:39.801Z,38.99
2023-05-18T00:26:39.803Z,38.19
2023-05-18T00:27:39.768Z,37.87
2023-05-18T00:28:39.769Z,38.83
2023-05-18T00:29:39.754Z,43.51
2023-05-18T00:30:39.747Z,39.32
2023-05-18T00:31:39.753Z,39.32
2023-05-18T00:32:39.771Z,38.51
2023-05-18T00:33:39.719Z,37.71
2023-05-18T00:34:39.708Z,37.87
2023-05-18T00:35:39.703Z,38.35
2023-05-18T00:36:39.672Z,38.03
2023-05-18T00:37:40.672Z,38.51
2023-05-18T00:38:39.654Z,38.83
2023-05-18T00:39:39.722Z,38.19
2023-05-18T00:40:39.640Z,38.35
2023-05-18T00:41:39.651Z,37.22
2023-05-18T00:42:39.617Z,37.38
2023-05-18T00:43:39.630Z,37.38
2023-05-18T00:44:39.629Z,37.87
2023-05-18T00:45:39.615Z,38.35
2023-05-18T00:46:39.589Z,38.19
2023-05-18T00:47:39.603Z,38.67
2023-05-18T00:48:39.556Z,38.35
2023-05-18T00:49:39.541Z,38.99
2023-05-18T00:50:39.525Z,38.03
2023-05-18T00:51:39.531Z,37.87
2023-05-18T00:52:39.521Z,38.35
2023-05-18T00:53:39.748Z,37.54
2023-05-18T00:54:39.494Z,37.38
2023-05-18T00:55:39.496Z,37.71
2023-05-18T00:56:39.565Z,38.83
2023-05-18T00:57:39.502Z,38.99
2023-05-18T00:58:39.480Z,38.67
2023-05-18T00:59:39.477Z,38.83
2023-05-18T01:00:39.457Z,39.32
2023-05-18T01:01:39.503Z,37.87
2023-05-18T01:02:40.513Z,38.35
2023-05-18T01:03:39.534Z,37.71
2023-05-18T01:04:39.394Z,37.38
2023-05-18T01:05:39.417Z,37.38
2023-05-18T01:06:39.383Z,39.16
2023-05-18T01:07:39.375Z,38.83
2023-05-18T01:08:39.399Z,37.87
2023-05-18T01:09:39.336Z,37.87
2023-05-18T01:10:39.352Z,37.87
2023-05-18T01:11:39.391Z,37.71
2023-05-18T01:12:39.345Z,38.19
2023-05-18T01:13:39.318Z,37.22
2023-05-18T01:14:39.309Z,37.87
2023-05-18T01:15:39.331Z,37.38
2023-05-18T01:16:39.278Z,36.90
2023-05-18T01:17:39.304Z,37.22
2023-05-18T01:18:39.287Z,37.54
2023-05-18T01:19:39.265Z,37.87
2023-05-18T01:20:39.278Z,39.64
2023-05-18T01:21:39.256Z,38.67
2023-05-18T01:22:39.228Z,39.32
2023-05-18T01:23:39.217Z,38.51
2023-05-18T01:24:39.201Z,36.90
2023-05-18T01:25:39.189Z,38.03
2023-05-18T01:26:39.178Z,38.35
2023-05-18T01:27:39.148Z,39.64
2023-05-18T01:28:39.145Z,39.16
2023-05-18T01:29:39.178Z,38.35
2023-05-18T01:30:39.165Z,39.16
2023-05-18T01:31:39.130Z,39.32
2023-05-18T01:32:39.151Z,40.12
2023-05-18T01:33:39.111Z,39.64
2023-05-18T01:34:39.101Z,38.99
2023-05-18T01:35:39.088Z,38.19
2023-05-18T01:36:39.092Z,38.83
2023-05-18T01:37:39.074Z,38.99
2023-05-18T01:38:39.393Z,39.32
2023-05-18T01:39:39.047Z,38.99
2023-05-18T01:40:39.040Z,38.83
2023-05-18T01:41:39.033Z,38.99
2023-05-18T01:42:39.018Z,39.16
2023-05-18T01:43:39.045Z,38.51
2023-05-18T01:44:39.016Z,38.35
2023-05-18T01:45:38.990Z,38.83
2023-05-18T01:46:39.017Z,38.99
2023-05-18T01:47:39.029Z,38.03
2023-05-18T01:48:38.975Z,39.32
2023-05-18T01:49:38.966Z,38.19
2023-05-18T01:50:38.973Z,38.03
2023-05-18T01:51:38.981Z,37.38
2023-05-18T01:52:38.954Z,37.22
2023-05-18T01:53:38.931Z,38.19
2023-05-18T01:54:38.930Z,37.87
2023-05-18T01:55:38.917Z,38.51
2023-05-18T01:56:38.909Z,38.03
2023-05-18T01:57:38.921Z,37.54
2023-05-18T01:58:38.886Z,37.87
2023-05-18T01:59:38.894Z,38.03
2023-05-18T02:00:38.855Z,38.99
2023-05-18T02:01:38.880Z,39.32
2023-05-18T02:02:38.993Z,39.16
2023-05-18T02:03:38.974Z,38.99
2023-05-18T02:04:38.830Z,38.51
2023-05-18T02:05:38.819Z,38.35
2023-05-18T02:06:38.827Z,38.35
2023-05-18T02:07:38.817Z,38.83
2023-05-18T02:08:38.791Z,38.03
2023-05-18T02:09:38.771Z,38.03
2023-05-18T02:10:38.760Z,38.03
2023-05-18T02:11:38.756Z,37.87
2023-05-18T02:12:38.733Z,38.83
2023-05-18T02:13:38.717Z,38.99
2023-05-18T02:14:38.755Z,38.35
2023-05-18T02:15:38.731Z,38.19
2023-05-18T02:16:38.770Z,37.87
2023-05-18T02:17:38.720Z,37.87
2023-05-18T02:18:39.719Z,38.19
2023-05-18T02:19:38.702Z,38.51
2023-05-18T02:20:38.638Z,37.87
2023-05-18T02:21:38.645Z,38.51
2023-05-18T02:22:38.635Z,37.71
2023-05-18T02:23:38.710Z,38.83
2023-05-18T02:24:38.607Z,38.19
2023-05-18T02:25:38.610Z,39.16
2023-05-18T02:26:38.586Z,39.48
2023-05-18T02:27:38.585Z,39.48
2023-05-18T02:28:38.580Z,40.93
2023-05-18T02:29:38.557Z,38.35
2023-05-18T02:30:38.570Z,38.99
2023-05-18T02:31:38.588Z,39.64
2023-05-18T02:32:38.678Z,40.28
2023-05-18T02:33:38.538Z,40.44
2023-05-18T02:34:38.501Z,41.09
2023-05-18T02:35:38.496Z,40.61
2023-05-18T02:36:38.502Z,40.44
2023-05-18T02:37:38.468Z,40.28
2023-05-18T02:38:38.504Z,39.96
2023-05-18T02:39:38.501Z,40.61
2023-05-18T02:40:38.480Z,41.09
2023-05-18T02:41:38.454Z,41.09
2023-05-18T02:42:38.423Z,41.09
2023-05-18T02:43:38.406Z,41.57
2023-05-18T02:44:38.430Z,41.57
2023-05-18T02:45:38.412Z,40.61
2023-05-18T02:46:38.411Z,41.57
2023-05-18T02:47:38.405Z,41.73
2023-05-18T02:48:38.368Z,41.89
2023-05-18T02:49:38.403Z,42.06
2023-05-18T02:50:38.371Z,41.25
2023-05-18T02:51:38.351Z,42.86
2023-05-18T02:52:38.362Z,43.83
2023-05-18T02:53:38.371Z,41.41
2023-05-18T02:54:38.366Z,41.09
2023-05-18T02:55:38.373Z,41.89
2023-05-18T02:56:38.312Z,40.44
2023-05-18T02:57:38.289Z,41.09
2023-05-18T02:58:38.294Z,41.09
2023-05-18T02:59:38.302Z,40.93
2023-05-18T03:00:38.290Z,41.73
2023-05-18T03:01:38.278Z,41.73
2023-05-18T03:02:38.396Z,41.09
2023-05-18T03:03:38.292Z,41.25
2023-05-18T03:04:38.243Z,40.77
2023-05-18T03:05:38.208Z,40.77
2023-05-18T03:06:38.223Z,40.93
2023-05-18T03:07:38.210Z,41.57
2023-05-18T03:08:39.206Z,41.73
2023-05-18T03:09:38.186Z,41.25
2023-05-18T03:10:38.184Z,41.41
2023-05-18T03:11:38.164Z,40.61
2023-05-18T03:12:38.184Z,41.57
2023-05-18T03:13:38.134Z,42.06
2023-05-18T03:14:39.158Z,41.73
2023-05-18T03:15:38.163Z,41.25
2023-05-18T03:16:38.257Z,41.09
2023-05-18T03:17:38.210Z,41.09
2023-05-18T03:18:38.148Z,40.44
2023-05-18T03:19:38.112Z,41.25
2023-05-18T03:20:38.108Z,40.61
2023-05-18T03:21:38.080Z,41.09
2023-05-18T03:22:38.076Z,40.44
2023-05-18T03:23:38.073Z,41.73
2023-05-18T03:24:38.057Z,40.93
2023-05-18T03:25:38.048Z,41.25
2023-05-18T03:26:38.037Z,41.09
2023-05-18T03:27:38.049Z,41.09
2023-05-18T03:28:37.995Z,41.73
2023-05-18T03:29:38.012Z,42.06
2023-05-18T03:30:37.989Z,42.06
2023-05-18T03:31:38.057Z,41.09
2023-05-18T03:32:38.074Z,40.93
2023-05-18T03:33:37.941Z,41.89
2023-05-18T03:34:37.942Z,40.61
2023-05-18T03:35:38.003Z,42.06
2023-05-18T03:36:37.925Z,40.93
2023-05-18T03:37:37.966Z,39.80
2023-05-18T03:38:37.898Z,40.28
2023-05-18T03:39:37.912Z,40.61
2023-05-18T03:40:37.895Z,40.12
2023-05-18T03:41:37.897Z,40.12
2023-05-18T03:42:37.884Z,40.77
2023-05-18T03:43:37.881Z,40.28
2023-05-18T03:44:37.846Z,40.12
2023-05-18T03:45:37.883Z,40.77
2023-05-18T03:46:37.847Z,39.64
2023-05-18T03:47:37.848Z,40.44
2023-05-18T03:48:37.829Z,40.28
2023-05-18T03:49:37.813Z,40.77
2023-05-18T03:50:37.848Z,39.80
2023-05-18T03:51:37.779Z,39.48
2023-05-18T03:52:37.779Z,40.44
2023-05-18T03:53:37.775Z,40.12
2023-05-18T03:54:37.768Z,40.12
2023-05-18T03:55:37.765Z,40.61
2023-05-18T03:56:37.720Z,41.25
2023-05-18T03:57:37.740Z,40.77
2023-05-18T03:58:38.698Z,40.61
2023-05-18T03:59:37.727Z,40.44
2023-05-18T04:00:37.703Z,40.61
2023-05-18T04:01:37.727Z,40.61
2023-05-18T04:02:37.796Z,40.77
2023-05-18T04:03:37.757Z,41.25
2023-05-18T04:04:37.643Z,40.77
2023-05-18T04:05:37.622Z,41.09
2023-05-18T04:06:37.668Z,40.93
2023-05-18T04:07:37.628Z,40.61
2023-05-18T04:08:37.682Z,40.44
2023-05-18T04:09:37.623Z,41.41
2023-05-18T04:10:37.576Z,41.57
2023-05-18T04:11:37.574Z,39.80
2023-05-18T04:12:37.575Z,40.12
2023-05-18T04:13:37.573Z,40.77
2023-05-18T04:14:37.565Z,40.28
2023-05-18T04:15:37.557Z,41.57
2023-05-18T04:16:37.558Z,41.09
2023-05-18T04:17:37.549Z,41.25
2023-05-18T04:18:37.558Z,40.44
2023-05-18T04:19:37.542Z,41.09
2023-05-18T04:20:37.486Z,40.28
2023-05-18T04:21:37.512Z,38.83
2023-05-18T04:22:37.467Z,39.16
2023-05-18T04:23:37.477Z,39.64
2023-05-18T04:24:37.446Z,40.93
2023-05-18T04:25:37.464Z,40.44
2023-05-18T04:26:37.419Z,40.44
2023-05-18T04:27:37.433Z,41.09
2023-05-18T04:28:37.572Z,41.73
2023-05-18T04:29:37.416Z,41.41
2023-05-18T04:30:37.410Z,40.93
2023-05-18T04:31:37.467Z,41.57
2023-05-18T04:32:37.399Z,41.25
2023-05-18T04:33:37.380Z,41.25
2023-05-18T04:34:37.363Z,42.22
2023-05-18T04:35:37.362Z,41.89
2023-05-18T04:36:37.353Z,41.09
2023-05-18T04:37:37.343Z,40.28
2023-05-18T04:38:37.334Z,40.28
2023-05-18T04:39:37.319Z,40.93
2023-05-18T04:40:37.321Z,39.64
2023-05-18T04:41:37.312Z,41.09
2023-05-18T04:42:37.333Z,44.15
2023-05-18T04:43:37.267Z,41.89
2023-05-18T04:44:37.276Z,42.06
2023-05-18T04:45:37.327Z,41.57
2023-05-18T04:46:37.259Z,41.57
2023-05-18T04:47:37.277Z,41.89
2023-05-18T04:48:37.206Z,42.06
2023-05-18T04:49:37.212Z,42.22
2023-05-18T04:50:37.245Z,41.57
2023-05-18T04:51:37.190Z,41.09
2023-05-18T04:52:37.191Z,42.22
2023-05-18T04:53:37.169Z,41.41
2023-05-18T04:54:37.158Z,41.57
2023-05-18T04:55:37.153Z,40.61
2023-05-18T04:56:37.174Z,40.93
2023-05-18T04:57:37.140Z,40.77
2023-05-18T04:58:37.134Z,40.61
2023-05-18T04:59:37.106Z,41.25
2023-05-18T05:00:37.113Z,40.28
2023-05-18T05:01:37.111Z,40.93
2023-05-18T05:02:37.126Z,40.77
2023-05-18T05:03:37.148Z,40.44
2023-05-18T05:04:37.076Z,40.44
2023-05-18T05:05:37.030Z,42.86
2023-05-18T05:06:37.051Z,41.09
2023-05-18T05:07:37.015Z,40.77
2023-05-18T05:08:37.007Z,40.28
2023-05-18T05:09:36.999Z,40.28
2023-05-18T05:10:36.999Z,41.09
2023-05-18T05:11:36.996Z,42.22
2023-05-18T05:12:36.990Z,41.89
2023-05-18T05:13:36.970Z,41.57
2023-05-18T05:14:36.951Z,41.25
2023-05-18T05:15:36.961Z,42.54
2023-05-18T05:16:36.951Z,41.57
2023-05-18T05:17:37.006Z,41.89
2023-05-18T05:18:36.941Z,41.57
2023-05-18T05:19:36.914Z,41.41
2023-05-18T05:20:36.914Z,42.38
2023-05-18T05:21:36.897Z,41.25
2023-05-18T05:22:36.969Z,41.09
2023-05-18T05:23:36.850Z,40.77
2023-05-18T05:24:36.839Z,42.38
2023-05-18T05:25:36.847Z,41.41
2023-05-18T05:26:36.827Z,42.22
2023-05-18T05:27:36.808Z,43.34
2023-05-18T05:28:36.785Z,42.22
2023-05-18T05:29:36.783Z,41.09
2023-05-18T05:30:36.799Z,40.61
2023-05-18T05:31:36.814Z,40.61
2023-05-18T05:32:36.962Z,41.57
2023-05-18T05:33:36.751Z,40.12
2023-05-18T05:34:36.788Z,40.93
2023-05-18T05:35:37.044Z,41.09
2023-05-18T05:36:36.749Z,41.41
2023-05-18T05:37:36.732Z,39.64
2023-05-18T05:38:36.717Z,40.28
2023-05-18T05:39:36.714Z,40.28
2023-05-18T05:40:36.672Z,40.28
2023-05-18T05:41:36.691Z,41.25
2023-05-18T05:42:36.704Z,39.64
2023-05-18T05:43:36.669Z,41.09
2023-05-18T05:44:36.673Z,40.12
2023-05-18T05:45:36.656Z,40.44
2023-05-18T05:46:36.742Z,40.93
2023-05-18T05:47:36.667Z,40.93
2023-05-18T05:48:36.610Z,39.96
2023-05-18T05:49:36.636Z,41.25
2023-05-18T05:50:36.586Z,40.61
2023-05-18T05:51:36.560Z,40.44
2023-05-18T05:52:36.592Z,41.41
2023-05-18T05:53:36.572Z,40.12
2023-05-18T05:54:36.545Z,40.12
2023-05-18T05:55:36.528Z,41.09
2023-05-18T05:56:36.517Z,39.80
2023-05-18T05:57:36.514Z,40.61
2023-05-18T05:58:36.506Z,40.77
2023-05-18T05:59:36.503Z,40.93
2023-05-18T06:00:36.479Z,40.61
2023-05-18T06:01:36.473Z,39.64
2023-05-18T06:02:36.729Z,41.57
2023-05-18T06:03:36.522Z,40.12
2023-05-18T06:04:36.580Z,40.61
2023-05-18T06:05:36.426Z,39.80
2023-05-18T06:06:36.421Z,40.93
2023-05-18T06:07:36.412Z,42.22
2023-05-18T06:08:36.400Z,39.48
2023-05-18T06:09:36.385Z,40.61
2023-05-18T06:10:36.371Z,39.80
2023-05-18T06:11:36.363Z,39.48
2023-05-18T06:12:36.365Z,39.32
2023-05-18T06:13:36.360Z,40.12
2023-05-18T06:14:36.335Z,39.32
2023-05-18T06:15:36.322Z,39.32
2023-05-18T06:16:36.360Z,38.67
2023-05-18T06:17:36.326Z,38.83
2023-05-18T06:18:36.390Z,39.80
2023-05-18T06:19:36.279Z,38.67
2023-05-18T06:20:36.287Z,38.99
2023-05-18T06:21:36.270Z,39.96
2023-05-18T06:22:36.263Z,40.77
2023-05-18T06:23:36.242Z,38.67
2023-05-18T06:24:36.242Z,38.35
2023-05-18T06:25:36.232Z,41.25
2023-05-18T06:26:36.217Z,38.67
2023-05-18T06:27:36.209Z,39.32
2023-05-18T06:28:36.183Z,39.16
2023-05-18T06:29:36.183Z,38.67
2023-05-18T06:30:36.183Z,39.80
2023-05-18T06:31:36.180Z,39.16
2023-05-18T06:32:36.158Z,38.35
2023-05-18T06:33:37.174Z,37.71
2023-05-18T06:34:36.127Z,37.54
2023-05-18T06:35:36.147Z,38.83
2023-05-18T06:36:36.124Z,39.32
2023-05-18T06:37:36.100Z,39.32
2023-05-18T06:38:36.134Z,40.93
2023-05-18T06:39:36.072Z,39.80
2023-05-18T06:40:36.094Z,37.38
2023-05-18T06:41:36.064Z,37.38
2023-05-18T06:42:36.044Z,38.19
2023-05-18T06:43:36.042Z,37.38
2023-05-18T06:44:36.044Z,37.38
2023-05-18T06:45:37.310Z,39.32
2023-05-18T06:46:37.093Z,37.38
2023-05-18T06:47:36.111Z,39.32
2023-05-18T06:48:35.993Z,38.03
2023-05-18T06:49:35.985Z,38.35
2023-05-18T06:50:35.979Z,37.71
2023-05-18T06:51:35.956Z,38.35
2023-05-18T06:52:35.953Z,37.38
2023-05-18T06:53:35.933Z,37.06
2023-05-18T06:54:36.603Z,37.87
2023-05-18T06:55:36.749Z,38.03
2023-05-18T06:56:35.900Z,38.51
2023-05-18T06:57:35.887Z,38.35
2023-05-18T06:58:35.960Z,38.83
2023-05-18T06:59:36.331Z,39.16
2023-05-18T07:00:36.444Z,37.06
2023-05-18T07:01:35.917Z,37.22
2023-05-18T07:02:35.918Z,36.09
2023-05-18T07:03:35.892Z,36.58
2023-05-18T07:04:35.817Z,38.03
2023-05-18T07:05:39.209Z,38.67
2023-05-18T07:06:36.781Z,37.38
2023-05-18T07:07:35.792Z,37.87
2023-05-18T07:08:35.823Z,38.35
2023-05-18T07:09:35.802Z,38.19
2023-05-18T07:10:35.761Z,38.83
2023-05-18T07:11:35.742Z,37.38
2023-05-18T07:12:35.721Z,37.71
2023-05-18T07:13:35.728Z,40.61
2023-05-18T07:14:35.703Z,37.54
2023-05-18T07:15:35.785Z,37.87
2023-05-18T07:16:35.820Z,38.19
2023-05-18T07:17:35.706Z,38.83
2023-05-18T07:18:35.740Z,38.67
2023-05-18T07:19:35.644Z,39.16
2023-05-18T07:20:35.651Z,37.38
2023-05-18T07:21:35.627Z,37.38
2023-05-18T07:22:35.623Z,42.22
2023-05-18T07:23:35.805Z,40.93
2023-05-18T07:25:09.780Z,37.54
2023-05-18T07:25:35.609Z,41.89
2023-05-18T07:26:35.601Z,36.42
2023-05-18T07:27:35.592Z,37.71
2023-05-18T07:28:35.585Z,37.71
2023-05-18T07:29:35.555Z,36.42
2023-05-18T07:30:35.537Z,36.09
2023-05-18T07:31:35.562Z,39.80
2023-05-18T07:32:35.597Z,39.48
2023-05-18T07:33:35.537Z,39.48
2023-05-18T07:34:35.557Z,40.44
2023-05-18T07:35:35.536Z,37.71
2023-05-18T07:36:35.497Z,43.83
2023-05-18T07:37:35.519Z,38.51
2023-05-18T07:38:35.488Z,37.38
2023-05-18T07:39:35.489Z,38.83
2023-05-18T07:40:35.461Z,37.38
2023-05-18T07:41:35.458Z,37.54
2023-05-18T07:42:35.450Z,36.90
2023-05-18T07:43:35.426Z,38.35
2023-05-18T07:44:35.418Z,38.67
2023-05-18T07:45:35.430Z,42.54
2023-05-18T07:46:35.440Z,46.08
2023-05-18T07:47:35.450Z,38.99
2023-05-18T07:48:35.389Z,41.09
2023-05-18T07:49:35.373Z,39.16
2023-05-18T07:50:35.373Z,37.06
2023-05-18T07:51:35.374Z,37.22
2023-05-18T07:52:35.393Z,38.19
2023-05-18T07:53:35.335Z,37.87
2023-05-18T07:54:35.323Z,38.03
2023-05-18T07:55:35.316Z,36.74
2023-05-18T07:56:35.313Z,37.06
2023-05-18T07:57:35.307Z,37.87
2023-05-18T07:58:35.325Z,37.87
2023-05-18T07:59:35.293Z,38.35
2023-05-18T08:00:35.270Z,37.38
2023-05-18T08:01:35.370Z,37.38
2023-05-18T08:02:35.296Z,41.41
2023-05-18T08:03:35.288Z,41.25
2023-05-18T08:04:35.225Z,41.25
2023-05-18T08:05:35.209Z,39.16
2023-05-18T08:06:35.214Z,37.38
2023-05-18T08:07:35.197Z,40.12
2023-05-18T08:08:35.197Z,38.67
2023-05-18T08:09:35.173Z,38.83
2023-05-18T08:10:35.230Z,38.83
2023-05-18T08:11:35.184Z,39.32
2023-05-18T08:12:35.145Z,39.32
2023-05-18T08:13:35.125Z,36.90
2023-05-18T08:14:35.115Z,36.09
2023-05-18T08:15:35.121Z,40.61
2023-05-18T08:16:35.179Z,41.09
2023-05-18T08:17:36.117Z,36.90
2023-05-18T08:18:35.089Z,35.93
2023-05-18T08:19:36.055Z,40.61
2023-05-18T08:20:35.077Z,41.09
2023-05-18T08:21:35.041Z,37.22
2023-05-18T08:22:35.044Z,38.19
2023-05-18T08:23:35.025Z,39.80
2023-05-18T08:24:35.029Z,37.38
2023-05-18T08:25:35.026Z,36.58
2023-05-18T08:26:35.005Z,37.22
2023-05-18T08:27:35.007Z,39.48
2023-05-18T08:28:35.006Z,37.87
2023-05-18T08:29:34.981Z,40.61
2023-05-18T08:30:34.960Z,38.67
2023-05-18T08:31:35.031Z,37.87
2023-05-18T08:32:34.956Z,37.22
2023-05-18T08:33:34.923Z,37.54
2023-05-18T08:34:34.968Z,38.03
2023-05-18T08:35:34.932Z,41.41
2023-05-18T08:36:34.880Z,40.12
2023-05-18T08:37:34.876Z,36.90
2023-05-18T08:38:34.866Z,38.19
2023-05-18T08:39:34.894Z,39.16
2023-05-18T08:40:34.852Z,38.99
2023-05-18T08:41:34.823Z,36.74
2023-05-18T08:42:48.662Z,37.71
2023-05-18T08:43:36.816Z,36.90
2023-05-18T08:44:34.814Z,38.83
2023-05-18T08:45:34.795Z,37.06
2023-05-18T08:46:34.789Z,36.42
2023-05-18T08:47:34.843Z,39.64
2023-05-18T08:48:34.852Z,39.48
2023-05-18T08:49:34.763Z,37.22
2023-05-18T08:50:34.751Z,37.06
2023-05-18T08:51:34.745Z,36.58
2023-05-18T08:52:34.730Z,37.22
2023-05-18T08:53:34.738Z,36.74
2023-05-18T08:54:34.705Z,39.16
2023-05-18T08:55:34.678Z,41.89
2023-05-18T08:56:34.722Z,40.44
2023-05-18T08:57:34.679Z,36.42
2023-05-18T08:58:34.660Z,36.58
2023-05-18T08:59:35.678Z,36.90
2023-05-18T09:00:35.106Z,35.93
2023-05-18T09:01:34.686Z,36.58
2023-05-18T09:02:34.677Z,35.77
2023-05-18T09:03:34.608Z,37.87
2023-05-18T09:04:34.616Z,35.61
2023-05-18T09:05:35.061Z,34.97
2023-05-18T09:06:34.581Z,35.77
2023-05-18T09:07:34.594Z,34.97
2023-05-18T09:08:34.556Z,36.42
2023-05-18T09:09:34.546Z,35.93
2023-05-18T09:10:34.544Z,35.45
2023-05-18T09:11:34.567Z,34.64
2023-05-18T09:12:34.520Z,34.32
2023-05-18T09:13:34.512Z,34.16
2023-05-18T09:14:34.491Z,35.93
2023-05-18T09:15:34.474Z,36.42
2023-05-18T09:16:34.625Z,37.38
2023-05-18T09:17:34.460Z,38.03
2023-05-18T09:18:34.546Z,36.25
2023-05-18T09:19:34.444Z,36.42
2023-05-18T09:20:34.428Z,35.13
2023-05-18T09:21:34.430Z,35.77
2023-05-18T09:22:34.405Z,35.93
2023-05-18T09:23:34.408Z,38.19
2023-05-18T09:24:34.402Z,37.22
2023-05-18T09:25:34.386Z,35.77
2023-05-18T09:26:34.379Z,39.96
2023-05-18T09:27:34.371Z,39.64
2023-05-18T09:28:34.335Z,38.83
2023-05-18T09:29:34.353Z,36.58
2023-05-18T09:30:34.351Z,34.80
2023-05-18T09:31:34.387Z,36.42
2023-05-18T09:32:34.324Z,35.77
2023-05-18T09:33:34.387Z,36.42
2023-05-18T09:34:34.294Z,35.45
2023-05-18T09:35:34.581Z,36.09
2023-05-18T09:36:34.267Z,36.09
2023-05-18T09:37:34.262Z,36.74
2023-05-18T09:38:34.248Z,37.87
2023-05-18T09:39:34.247Z,36.42
2023-05-18T09:40:34.235Z,35.77
2023-05-18T09:41:34.223Z,38.03
2023-05-18T09:42:34.213Z,37.38
2023-05-18T09:43:34.202Z,36.74
2023-05-18T09:44:34.198Z,36.90
2023-05-18T09:45:34.174Z,35.77
2023-05-18T09:46:34.234Z,38.03
2023-05-18T09:47:34.166Z,41.25
2023-05-18T09:48:34.151Z,38.35
2023-05-18T09:49:34.161Z,39.16
2023-05-18T09:50:34.142Z,37.71
2023-05-18T09:51:34.130Z,40.28
2023-05-18T09:52:34.112Z,39.32
2023-05-18T09:53:34.116Z,41.25
2023-05-18T09:54:34.097Z,39.80
2023-05-18T09:55:35.094Z,37.06
2023-05-18T09:56:34.064Z,37.22
2023-05-18T09:57:34.058Z,38.67
2023-05-18T09:58:34.070Z,39.80
2023-05-18T09:59:34.057Z,39.64
2023-05-18T10:00:34.070Z,40.61
2023-05-18T10:01:34.093Z,39.64
2023-05-18T10:02:34.066Z,41.25
2023-05-18T10:03:34.019Z,40.44
2023-05-18T10:04:34.025Z,41.09
2023-05-18T10:05:35.732Z,38.67
2023-05-18T10:06:34.971Z,36.90
2023-05-18T10:07:33.966Z,39.48
2023-05-18T10:08:33.952Z,39.16
2023-05-18T10:09:33.939Z,37.38
2023-05-18T10:10:33.967Z,37.87
2023-05-18T10:11:33.930Z,36.58
2023-05-18T10:12:33.933Z,36.25
2023-05-18T10:13:33.896Z,38.35
2023-05-18T10:14:33.896Z,43.02
2023-05-18T10:15:33.884Z,37.54
2023-05-18T10:16:33.898Z,36.90
2023-05-18T10:17:33.961Z,37.71
2023-05-18T10:18:33.965Z,36.74
2023-05-18T10:19:33.848Z,37.87
2023-05-18T10:20:33.835Z,39.16
2023-05-18T10:21:33.825Z,40.28
2023-05-18T10:22:33.829Z,38.35
2023-05-18T10:23:33.805Z,40.93
2023-05-18T10:24:33.787Z,38.03
2023-05-18T10:25:33.783Z,37.38
2023-05-18T10:26:33.790Z,37.71
2023-05-18T10:27:33.761Z,37.38
2023-05-18T10:28:33.750Z,36.58
2023-05-18T10:29:33.739Z,38.03
2023-05-18T10:30:33.947Z,37.22
2023-05-18T10:31:33.778Z,36.42
2023-05-18T10:32:33.745Z,43.02
2023-05-18T10:33:33.747Z,39.80
2023-05-18T10:34:33.839Z,36.90
2023-05-18T10:35:33.675Z,38.99
2023-05-18T10:36:33.675Z,37.71
2023-05-18T10:37:33.653Z,38.19
2023-05-18T10:38:33.650Z,40.12
2023-05-18T10:39:33.640Z,37.87
2023-05-18T10:40:33.676Z,39.32
2023-05-18T10:41:33.631Z,38.35
2023-05-18T10:42:33.602Z,42.38
2023-05-18T10:43:34.595Z,35.93
2023-05-18T10:44:33.589Z,37.38
2023-05-18T10:45:33.589Z,36.74
2023-05-18T10:46:33.745Z,37.87
2023-05-18T10:47:33.810Z,36.58
2023-05-18T10:48:33.572Z,42.70
2023-05-18T10:49:33.548Z,39.32
2023-05-18T10:50:33.558Z,44.31
2023-05-18T10:51:33.520Z,40.93
2023-05-18T10:52:33.501Z,38.35
2023-05-18T10:53:33.498Z,36.74
2023-05-18T10:54:33.492Z,35.45
2023-05-18T10:55:33.490Z,35.61
2023-05-18T10:56:33.494Z,36.90
2023-05-18T10:57:33.454Z,36.25
2023-05-18T10:58:33.445Z,35.93
2023-05-18T10:59:33.453Z,37.87
2023-05-18T11:00:33.645Z,42.86
2023-05-18T11:01:33.425Z,39.48
2023-05-18T11:02:33.479Z,37.38
2023-05-18T11:03:33.430Z,41.73
2023-05-18T11:04:33.435Z,36.74
2023-05-18T11:05:33.398Z,36.25
2023-05-18T11:06:33.481Z,36.58
2023-05-18T11:07:33.350Z,38.51
2023-05-18T11:08:33.344Z,38.35
2023-05-18T11:09:33.343Z,36.58
2023-05-18T11:10:33.321Z,37.71
2023-05-18T11:11:33.308Z,39.16
2023-05-18T11:12:33.343Z,37.87
2023-05-18T11:13:33.285Z,39.48
2023-05-18T11:14:34.295Z,37.87
2023-05-18T11:15:33.276Z,38.19
2023-05-18T11:16:33.301Z,38.51
2023-05-18T11:17:33.343Z,41.57
2023-05-18T11:18:33.246Z,38.67
2023-05-18T11:19:33.242Z,36.42
2023-05-18T11:20:33.395Z,35.29
2023-05-18T11:21:33.212Z,36.25
2023-05-18T11:22:33.192Z,42.06
2023-05-18T11:23:33.209Z,37.06
2023-05-18T11:24:33.216Z,36.25
2023-05-18T11:25:33.177Z,37.54
2023-05-18T11:26:33.162Z,36.25
2023-05-18T11:27:33.150Z,36.58
2023-05-18T11:28:33.149Z,40.77
2023-05-18T11:29:33.126Z,38.67
2023-05-18T11:30:33.337Z,38.19
2023-05-18T11:31:33.149Z,37.38
2023-05-18T11:32:33.200Z,37.87
2023-05-18T11:33:33.168Z,37.22
2023-05-18T11:34:33.085Z,37.87
2023-05-18T11:35:33.067Z,36.74
2023-05-18T11:36:33.047Z,37.87
2023-05-18T11:37:33.108Z,39.16
2023-05-18T11:38:33.077Z,38.83
2023-05-18T11:39:33.261Z,38.51
2023-05-18T11:40:33.121Z,38.67
2023-05-18T11:41:33.025Z,38.35
2023-05-18T11:42:33.015Z,40.12
2023-05-18T11:43:32.984Z,43.67
2023-05-18T11:44:32.982Z,39.16
2023-05-18T11:45:32.967Z,40.12
2023-05-18T11:46:32.958Z,42.86
2023-05-18T11:47:32.974Z,40.28
2023-05-18T11:48:33.004Z,40.93
2023-05-18T11:49:32.923Z,37.22
2023-05-18T11:50:33.337Z,36.74
2023-05-18T11:51:32.920Z,35.93
2023-05-18T11:52:32.911Z,37.38
2023-05-18T11:53:32.887Z,37.87
2023-05-18T11:54:32.997Z,37.38
2023-05-18T11:55:32.874Z,37.06
2023-05-18T11:56:32.886Z,40.93
2023-05-18T11:57:32.888Z,37.71
2023-05-18T11:58:32.838Z,38.99
2023-05-18T11:59:32.827Z,40.28
2023-05-18T12:00:32.923Z,39.96
2023-05-18T12:01:32.822Z,38.99
2023-05-18T12:02:32.845Z,38.03
2023-05-18T12:03:32.882Z,40.61
2023-05-18T12:04:32.789Z,38.35
2023-05-18T12:05:32.768Z,39.96
2023-05-18T12:06:32.766Z,38.03
2023-05-18T12:07:32.798Z,38.99
2023-05-18T12:08:32.746Z,37.06
2023-05-18T12:09:32.726Z,37.54
2023-05-18T12:10:33.009Z,39.80
2023-05-18T12:11:32.742Z,42.06
2023-05-18T12:12:32.702Z,39.16
2023-05-18T12:13:32.682Z,43.99
2023-05-18T12:14:32.682Z,41.25
2023-05-18T12:15:32.663Z,38.19
2023-05-18T12:16:33.732Z,37.71
2023-05-18T12:17:32.712Z,39.48
2023-05-18T12:18:32.628Z,38.03
2023-05-18T12:19:32.683Z,38.19
2023-05-18T12:20:32.825Z,38.35
2023-05-18T12:21:32.609Z,38.03
2023-05-18T12:22:32.595Z,39.16
2023-05-18T12:23:32.588Z,37.54
2023-05-18T12:24:32.579Z,36.90
2023-05-18T12:25:32.698Z,38.19
2023-05-18T12:26:32.561Z,38.03
2023-05-18T12:27:32.614Z,39.96
2023-05-18T12:28:32.533Z,39.48
2023-05-18T12:29:32.558Z,37.87
2023-05-18T12:30:32.526Z,38.03
2023-05-18T12:31:32.611Z,37.38
2023-05-18T12:32:32.516Z,37.54
2023-05-18T12:33:32.486Z,39.80
2023-05-18T12:34:32.489Z,38.99
2023-05-18T12:35:32.962Z,38.67
2023-05-18T12:36:32.456Z,38.51
2023-05-18T12:37:41.606Z,37.54
2023-05-18T12:38:34.456Z,36.42
2023-05-18T12:39:32.433Z,35.93
2023-05-18T12:40:32.423Z,38.19
2023-05-18T12:41:32.424Z,37.38
2023-05-18T12:42:32.465Z,37.87
2023-05-18T12:43:32.399Z,39.32
2023-05-18T12:44:32.390Z,35.61
2023-05-18T12:45:32.731Z,35.61
2023-05-18T12:46:32.382Z,39.48
2023-05-18T12:47:32.404Z,35.61
2023-05-18T12:48:32.346Z,36.90
2023-05-18T12:49:32.326Z,36.42
2023-05-18T12:50:32.369Z,37.71
2023-05-18T12:51:32.315Z,38.03
2023-05-18T12:52:32.295Z,37.71